sensor_id;sensor_type;location;lat;lon;timestamp;pressure;altitude;pressure_sealevel;temperature;humidity
78773;BME280;68111;44.728;11.290;2023-12-04T00:02:15;102371.19;;;11.97;38.54
78773;BME280;68111;44.728;11.290;2023-12-04T00:04:42;102378.22;;;11.95;38.87
78773;BME280;68111;44.728;11.290;2023-12-04T00:07:09;102376.44;;;11.94;38.57
78773;BME280;68111;44.728;11.290;2023-12-04T00:09:36;102374.63;;;11.93;38.83
78773;BME280;68111;44.728;11.290;2023-12-04T00:12:03;102379.94;;;11.93;38.72
78773;BME280;68111;44.728;11.290;2023-12-04T00:14:30;102383.44;;;11.92;38.83
78773;BME280;68111;44.728;11.290;2023-12-04T00:16:56;102379.88;;;11.90;38.74
78773;BME280;68111;44.728;11.290;2023-12-04T00:19:23;102379.88;;;11.90;38.85
78773;BME280;68111;44.728;11.290;2023-12-04T00:21:50;102373.69;;;11.90;38.63
78773;BME280;68111;44.728;11.290;2023-12-04T00:24:17;102366.63;;;11.90;38.56
78773;BME280;68111;44.728;11.290;2023-12-04T00:26:44;102366.56;;;11.87;38.74
78773;BME280;68111;44.728;11.290;2023-12-04T00:29:10;102371.00;;;11.88;38.70
78773;BME280;68111;44.728;11.290;2023-12-04T00:31:37;102369.19;;;11.87;38.79
78773;BME280;68111;44.728;11.290;2023-12-04T00:34:04;102365.63;;;11.85;38.74
78773;BME280;68111;44.728;11.290;2023-12-04T00:36:31;102359.44;;;11.84;38.81
78773;BME280;68111;44.728;11.290;2023-12-04T00:38:58;102359.38;;;11.83;38.72
78773;BME280;68111;44.728;11.290;2023-12-04T00:41:25;102360.25;;;11.82;38.73
78773;BME280;68111;44.728;11.290;2023-12-04T00:43:51;102351.38;;;11.80;38.61
78773;BME280;68111;44.728;11.290;2023-12-04T00:46:18;102360.19;;;11.79;38.59
78773;BME280;68111;44.728;11.290;2023-12-04T00:48:45;102362.78;;;11.77;38.68
78773;BME280;68111;44.728;11.290;2023-12-04T00:51:13;102359.22;;;11.77;38.54
78773;BME280;68111;44.728;11.290;2023-12-04T00:53:39;102347.66;;;11.73;38.63
78773;BME280;68111;44.728;11.290;2023-12-04T00:56:07;102351.06;;;11.69;38.45
78773;BME280;68111;44.728;11.290;2023-12-04T00:58:34;102351.03;;;11.68;38.42
78773;BME280;68111;44.728;11.290;2023-12-04T01:01:00;102348.31;;;11.65;38.47
78773;BME280;68111;44.728;11.290;2023-12-04T01:03:27;102349.09;;;11.61;38.52
78773;BME280;68111;44.728;11.290;2023-12-04T01:05:54;102342.88;;;11.59;38.44
78773;BME280;68111;44.728;11.290;2023-12-04T01:08:21;102338.44;;;11.58;38.47
78773;BME280;68111;44.728;11.290;2023-12-04T01:10:49;102334.84;;;11.55;38.42
78773;BME280;68111;44.728;11.290;2023-12-04T01:13:15;102336.56;;;11.53;38.78
78773;BME280;68111;44.728;11.290;2023-12-04T01:15:42;102344.47;;;11.52;38.45
78773;BME280;68111;44.728;11.290;2023-12-04T01:18:09;102348.88;;;11.51;38.48
78773;BME280;68111;44.728;11.290;2023-12-04T01:20:36;102346.16;;;11.48;38.64
78773;BME280;68111;44.728;11.290;2023-12-04T01:23:03;102347.91;;;11.48;38.51
78773;BME280;68111;44.728;11.290;2023-12-04T01:25:29;102336.41;;;11.47;38.44
78773;BME280;68111;44.728;11.290;2023-12-04T01:27:56;102339.94;;;11.46;38.54
78773;BME280;68111;44.728;11.290;2023-12-04T01:30:23;102340.78;;;11.45;38.75
78773;BME280;68111;44.728;11.290;2023-12-04T01:32:50;102337.25;;;11.45;38.50
78773;BME280;68111;44.728;11.290;2023-12-04T01:35:17;102336.31;;;11.43;38.61
78773;BME280;68111;44.728;11.290;2023-12-04T01:37:45;102322.19;;;11.42;38.58
78773;BME280;68111;44.728;11.290;2023-12-04T01:40:11;102314.19;;;11.41;38.58
78773;BME280;68111;44.728;11.290;2023-12-04T01:42:38;102309.78;;;11.41;38.71
78773;BME280;68111;44.728;11.290;2023-12-04T01:45:05;102305.31;;;11.39;38.42
78773;BME280;68111;44.728;11.290;2023-12-04T01:47:32;102315.03;;;11.38;38.57
78773;BME280;68111;44.728;11.290;2023-12-04T01:49:59;102315.91;;;11.39;38.69
78773;BME280;68111;44.728;11.290;2023-12-04T01:52:26;102327.31;;;11.36;38.64
78773;BME280;68111;44.728;11.290;2023-12-04T01:54:53;102321.09;;;11.34;38.69
78773;BME280;68111;44.728;11.290;2023-12-04T01:57:20;102317.53;;;11.32;38.60
78773;BME280;68111;44.728;11.290;2023-12-04T01:59:47;102324.53;;;11.30;38.69
78773;BME280;68111;44.728;11.290;2023-12-04T02:02:14;102334.19;;;11.28;38.69
78773;BME280;68111;44.728;11.290;2023-12-04T02:04:41;102335.91;;;11.26;38.61
78773;BME280;68111;44.728;11.290;2023-12-04T02:07:08;102334.06;;;11.23;38.73
78773;BME280;68111;44.728;11.290;2023-12-04T02:09:37;102329.63;;;11.22;39.02
78773;BME280;68111;44.728;11.290;2023-12-04T02:12:04;102326.06;;;11.20;38.71
78773;BME280;68111;44.728;11.290;2023-12-04T02:14:31;102325.97;;;11.17;38.74
78773;BME280;68111;44.728;11.290;2023-12-04T02:17:01;102316.25;;;11.16;38.55
78773;BME280;68111;44.728;11.290;2023-12-04T02:19:29;102305.63;;;11.15;38.67
78773;BME280;68111;44.728;11.290;2023-12-04T02:21:55;102298.53;;;11.14;38.54
78773;BME280;68111;44.728;11.290;2023-12-04T02:24:22;102309.13;;;11.14;38.60
78773;BME280;68111;44.728;11.290;2023-12-04T02:26:55;102302.06;;;11.13;38.62
78773;BME280;68111;44.728;11.290;2023-12-04T02:29:33;102297.56;;;11.10;38.58
78773;BME280;68111;44.728;11.290;2023-12-04T02:32:02;102293.09;;;11.08;38.45
78773;BME280;68111;44.728;11.290;2023-12-04T02:34:32;102300.09;;;11.06;38.47
78773;BME280;68111;44.728;11.290;2023-12-04T02:36:59;102300.94;;;11.03;38.59
78773;BME280;68111;44.728;11.290;2023-12-04T02:39:27;102292.06;;;11.01;38.60
78773;BME280;68111;44.728;11.290;2023-12-04T02:41:54;102291.16;;;11.01;38.61
78773;BME280;68111;44.728;11.290;2023-12-04T02:44:21;102293.72;;;10.98;38.60
78773;BME280;68111;44.728;11.290;2023-12-04T02:46:48;102298.09;;;10.96;38.68
78773;BME280;68111;44.728;11.290;2023-12-04T02:49:14;102306.00;;;10.94;38.50
78773;BME280;68111;44.728;11.290;2023-12-04T02:51:41;102306.88;;;10.95;38.35
78773;BME280;68111;44.728;11.290;2023-12-04T02:54:08;102309.50;;;10.93;38.35
78773;BME280;68111;44.728;11.290;2023-12-04T02:56:35;102313.88;;;10.93;38.27
78773;BME280;68111;44.728;11.290;2023-12-04T02:59:02;102317.38;;;10.92;38.21
78773;BME280;68111;44.728;11.290;2023-12-04T03:01:29;102311.16;;;10.89;38.43
78773;BME280;68111;44.728;11.290;2023-12-04T03:03:55;102321.66;;;10.86;38.18
78773;BME280;68111;44.728;11.290;2023-12-04T03:06:22;102320.72;;;10.84;38.46
78773;BME280;68111;44.728;11.290;2023-12-04T03:08:49;102322.44;;;10.82;38.45
78773;BME280;68111;44.728;11.290;2023-12-04T03:11:16;102313.66;;;10.83;38.36
78773;BME280;68111;44.728;11.290;2023-12-04T03:13:43;102315.34;;;10.81;38.03
78773;BME280;68111;44.728;11.290;2023-12-04T03:16:19;102312.69;;;10.80;38.36
78773;BME280;68111;44.728;11.290;2023-12-04T03:18:46;102301.19;;;10.79;38.40
78773;BME280;68111;44.728;11.290;2023-12-04T03:21:13;102293.25;;;10.79;38.33
78773;BME280;68111;44.728;11.290;2023-12-04T03:23:40;102294.13;;;10.78;38.21
78773;BME280;68111;44.728;11.290;2023-12-04T03:26:06;102301.16;;;10.78;38.47
78773;BME280;68111;44.728;11.290;2023-12-04T03:28:33;102302.88;;;10.76;38.04
78773;BME280;68111;44.728;11.290;2023-12-04T03:31:02;102302.75;;;10.71;38.05
78773;BME280;68111;44.728;11.290;2023-12-04T03:33:29;102301.84;;;10.71;38.06
78773;BME280;68111;44.728;11.290;2023-12-04T03:35:55;102315.03;;;10.69;37.97
78773;BME280;68111;44.728;11.290;2023-12-04T03:38:22;102309.66;;;10.66;37.95
78773;BME280;68111;44.728;11.290;2023-12-04T03:40:49;102304.28;;;10.63;38.00
78773;BME280;68111;44.728;11.290;2023-12-04T03:43:15;102303.41;;;10.63;38.00
78773;BME280;68111;44.728;11.290;2023-12-04T03:45:42;102289.31;;;10.64;38.09
78773;BME280;68111;44.728;11.290;2023-12-04T03:48:09;102277.88;;;10.65;37.97
78773;BME280;68111;44.728;11.290;2023-12-04T03:50:36;102277.94;;;10.66;38.10
78773;BME280;68111;44.728;11.290;2023-12-04T03:53:03;102277.06;;;10.67;38.06
78773;BME280;68111;44.728;11.290;2023-12-04T03:55:30;102279.72;;;10.67;37.98
78773;BME280;68111;44.728;11.290;2023-12-04T03:57:57;102270.00;;;10.66;38.04
78773;BME280;68111;44.728;11.290;2023-12-04T04:00:24;102286.75;;;10.67;38.03
78773;BME280;68111;44.728;11.290;2023-12-04T04:02:51;102280.53;;;10.65;37.75
78773;BME280;68111;44.728;11.290;2023-12-04T04:05:18;102285.81;;;10.65;37.85
78773;BME280;68111;44.728;11.290;2023-12-04T04:07:45;102287.56;;;10.64;37.79
78773;BME280;68111;44.728;11.290;2023-12-04T04:10:12;102283.22;;;10.66;37.89
78773;BME280;68111;44.728;11.290;2023-12-04T04:12:39;102278.00;;;10.69;37.71
78773;BME280;68111;44.728;11.290;2023-12-04T04:15:06;102278.09;;;10.72;37.93
78773;BME280;68111;44.728;11.290;2023-12-04T04:17:33;102280.81;;;10.75;37.92
78773;BME280;68111;44.728;11.290;2023-12-04T04:20:00;102288.81;;;10.78;37.87
78773;BME280;68111;44.728;11.290;2023-12-04T04:22:27;102295.09;;;10.82;37.60
78773;BME280;68111;44.728;11.290;2023-12-04T04:24:54;102295.13;;;10.83;37.72
78773;BME280;68111;44.728;11.290;2023-12-04T04:27:23;102299.56;;;10.84;37.89
78773;BME280;68111;44.728;11.290;2023-12-04T04:29:50;102303.16;;;10.86;37.76
78773;BME280;68111;44.728;11.290;2023-12-04T04:32:16;102302.28;;;10.87;37.64
78773;BME280;68111;44.728;11.290;2023-12-04T04:34:43;102303.22;;;10.89;37.93
78773;BME280;68111;44.728;11.290;2023-12-04T04:37:10;102301.50;;;10.92;37.77
78773;BME280;68111;44.728;11.290;2023-12-04T04:39:36;102296.19;;;10.90;37.65
78773;BME280;68111;44.728;11.290;2023-12-04T04:42:03;102297.94;;;10.89;37.79
78773;BME280;68111;44.728;11.290;2023-12-04T04:44:30;102298.75;;;10.87;37.92
78773;BME280;68111;44.728;11.290;2023-12-04T04:46:57;102296.00;;;10.82;37.85
78773;BME280;68111;44.728;11.290;2023-12-04T04:49:24;102295.94;;;10.81;37.67
78773;BME280;68111;44.728;11.290;2023-12-04T04:51:51;102292.41;;;10.80;37.83
78773;BME280;68111;44.728;11.290;2023-12-04T04:54:17;102293.31;;;10.81;37.37
78773;BME280;68111;44.728;11.290;2023-12-04T04:56:44;102290.72;;;10.84;37.54
78773;BME280;68111;44.728;11.290;2023-12-04T04:59:11;102295.16;;;10.85;37.67
78773;BME280;68111;44.728;11.290;2023-12-04T05:01:38;102292.47;;;10.83;37.57
78773;BME280;68111;44.728;11.290;2023-12-04T05:04:04;102294.19;;;10.81;37.78
78773;BME280;68111;44.728;11.290;2023-12-04T05:06:31;102299.41;;;10.78;37.54
78773;BME280;68111;44.728;11.290;2023-12-04T05:08:58;102291.41;;;10.75;37.62
78773;BME280;68111;44.728;11.290;2023-12-04T05:11:25;102285.16;;;10.73;37.53
78773;BME280;68111;44.728;11.290;2023-12-04T05:13:52;102283.34;;;10.71;37.67
78773;BME280;68111;44.728;11.290;2023-12-04T05:16:18;102292.16;;;10.71;37.67
78773;BME280;68111;44.728;11.290;2023-12-04T05:18:45;102292.16;;;10.71;37.51
78773;BME280;68111;44.728;11.290;2023-12-04T05:21:12;102283.31;;;10.69;37.70
78773;BME280;68111;44.728;11.290;2023-12-04T05:23:39;102281.50;;;10.68;37.62
78773;BME280;68111;44.728;11.290;2023-12-04T05:26:07;102273.50;;;10.65;37.63
78773;BME280;68111;44.728;11.290;2023-12-04T05:28:34;102269.03;;;10.63;37.74
78773;BME280;68111;44.728;11.290;2023-12-04T05:31:01;102262.78;;;10.61;37.92
78773;BME280;68111;44.728;11.290;2023-12-04T05:33:28;102280.41;;;10.60;37.81
78773;BME280;68111;44.728;11.290;2023-12-04T05:35:55;102274.19;;;10.58;37.74
78773;BME280;68111;44.728;11.290;2023-12-04T05:38:22;102268.81;;;10.55;37.77
78773;BME280;68111;44.728;11.290;2023-12-04T05:40:48;102261.75;;;10.54;37.88
78773;BME280;68111;44.728;11.290;2023-12-04T05:43:15;102276.72;;;10.53;37.74
78773;BME280;68111;44.728;11.290;2023-12-04T05:45:42;102270.53;;;10.53;37.97
78773;BME280;68111;44.728;11.290;2023-12-04T05:48:09;102266.13;;;10.53;37.72
78773;BME280;68111;44.728;11.290;2023-12-04T05:50:36;102262.56;;;10.51;37.93
78773;BME280;68111;44.728;11.290;2023-12-04T05:53:03;102267.75;;;10.48;37.72
78773;BME280;68111;44.728;11.290;2023-12-04T05:55:29;102266.88;;;10.48;38.21
78773;BME280;68111;44.728;11.290;2023-12-04T05:57:56;102275.66;;;10.47;38.03
78773;BME280;68111;44.728;11.290;2023-12-04T06:00:23;102282.72;;;10.48;37.96
78773;BME280;68111;44.728;11.290;2023-12-04T06:02:54;102284.59;;;10.52;37.92
78773;BME280;68111;44.728;11.290;2023-12-04T06:05:21;102285.63;;;10.57;37.94
78773;BME280;68111;44.728;11.290;2023-12-04T06:07:50;102280.41;;;10.60;37.83
78773;BME280;68111;44.728;11.290;2023-12-04T06:10:16;102276.97;;;10.63;38.00
78773;BME280;68111;44.728;11.290;2023-12-04T06:12:43;102267.28;;;10.63;37.94
78773;BME280;68111;44.728;11.290;2023-12-04T06:15:10;102276.06;;;10.62;37.76
78773;BME280;68111;44.728;11.290;2023-12-04T06:17:37;102276.06;;;10.62;37.90
78773;BME280;68111;44.728;11.290;2023-12-04T06:20:04;102284.94;;;10.64;37.87
78773;BME280;68111;44.728;11.290;2023-12-04T06:22:33;102277.00;;;10.64;37.84
78773;BME280;68111;44.728;11.290;2023-12-04T06:25:00;102278.72;;;10.62;37.95
78773;BME280;68111;44.728;11.290;2023-12-04T06:27:27;102268.97;;;10.61;37.87
78773;BME280;68111;44.728;11.290;2023-12-04T06:29:54;102280.47;;;10.62;38.05
78773;BME280;68111;44.728;11.290;2023-12-04T06:32:21;102274.28;;;10.61;37.94
78773;BME280;68111;44.728;11.290;2023-12-04T06:34:48;102270.78;;;10.62;38.01
78773;BME280;68111;44.728;11.290;2023-12-04T06:37:15;102274.28;;;10.61;37.98
78773;BME280;68111;44.728;11.290;2023-12-04T06:39:45;102274.22;;;10.60;38.03
78773;BME280;68111;44.728;11.290;2023-12-04T06:42:13;102283.06;;;10.60;38.00
78773;BME280;68111;44.728;11.290;2023-12-04T06:44:40;102296.25;;;10.58;38.13
78773;BME280;68111;44.728;11.290;2023-12-04T06:47:11;102307.72;;;10.59;38.05
78773;BME280;68111;44.728;11.290;2023-12-04T06:49:38;102303.38;;;10.61;38.02
78773;BME280;68111;44.728;11.290;2023-12-04T06:52:06;102321.09;;;10.65;38.10
78773;BME280;68111;44.728;11.290;2023-12-04T06:54:33;102322.03;;;10.67;38.24
78773;BME280;68111;44.728;11.290;2023-12-04T06:57:01;102316.78;;;10.69;37.88
78773;BME280;68111;44.728;11.290;2023-12-04T06:59:28;102315.03;;;10.69;37.98
78773;BME280;68111;44.728;11.290;2023-12-04T07:01:55;102311.53;;;10.70;37.74
78773;BME280;68111;44.728;11.290;2023-12-04T07:04:21;102310.69;;;10.71;37.95
78773;BME280;68111;44.728;11.290;2023-12-04T07:06:48;102302.75;;;10.71;38.19
78773;BME280;68111;44.728;11.290;2023-12-04T07:09:16;102306.25;;;10.70;37.74
78773;BME280;68111;44.728;11.290;2023-12-04T07:11:47;102302.59;;;10.65;37.52
78773;BME280;68111;44.728;11.290;2023-12-04T07:14:13;102310.59;;;10.37;37.64
78773;BME280;68111;44.728;11.290;2023-12-04T07:16:41;102308.47;;;9.95;38.19
78773;BME280;68111;44.728;11.290;2023-12-04T07:19:09;102299.63;;;9.65;38.67
78773;BME280;68111;44.728;11.290;2023-12-04T07:21:37;102300.56;;;9.38;39.06
78773;BME280;68111;44.728;11.290;2023-12-04T07:24:06;102308.75;;;9.19;39.13
78773;BME280;68111;44.728;11.290;2023-12-04T07:26:34;102305.06;;;9.14;39.65
78773;BME280;68111;44.728;11.290;2023-12-04T07:29:02;102305.06;;;9.14;39.68
78773;BME280;68111;44.728;11.290;2023-12-04T07:31:29;102314.81;;;9.16;39.92
78773;BME280;68111;44.728;11.290;2023-12-04T07:33:56;102300.78;;;9.17;39.75
78773;BME280;68111;44.728;11.290;2023-12-04T07:36:23;102303.47;;;9.19;39.81
78773;BME280;68111;44.728;11.290;2023-12-04T07:38:51;102291.16;;;9.19;39.44
78773;BME280;68111;44.728;11.290;2023-12-04T07:41:20;102292.47;;;9.07;39.69
78773;BME280;68111;44.728;11.290;2023-12-04T07:43:48;102283.25;;;8.94;39.59
78773;BME280;68111;44.728;11.290;2023-12-04T07:46:15;102282.16;;;8.87;40.29
78773;BME280;68111;44.728;11.290;2023-12-04T07:48:42;102282.06;;;8.84;40.12
78773;BME280;68111;44.728;11.290;2023-12-04T07:51:10;102281.13;;;8.82;40.29
78773;BME280;68111;44.728;11.290;2023-12-04T07:53:37;102285.69;;;8.88;40.40
78773;BME280;68111;44.728;11.290;2023-12-04T07:56:05;102278.97;;;8.97;40.52
78773;BME280;68111;44.728;11.290;2023-12-04T07:58:32;102272.16;;;9.04;40.21
78773;BME280;68111;44.728;11.290;2023-12-04T08:00:59;102272.22;;;9.06;40.30
78773;BME280;68111;44.728;11.290;2023-12-04T08:03:28;102274.97;;;9.09;40.09
78773;BME280;68111;44.728;11.290;2023-12-04T08:05:54;102278.56;;;9.11;40.05
78773;BME280;68111;44.728;11.290;2023-12-04T08:08:21;102280.50;;;9.16;39.97
78773;BME280;68111;44.728;11.290;2023-12-04T08:10:48;102283.41;;;9.24;39.93
78773;BME280;68111;44.728;11.290;2023-12-04T08:13:15;102286.97;;;9.26;39.90
78773;BME280;68111;44.728;11.290;2023-12-04T08:15:43;102287.97;;;9.29;39.70
78773;BME280;68111;44.728;11.290;2023-12-04T08:18:11;102290.66;;;9.31;39.55
78773;BME280;68111;44.728;11.290;2023-12-04T08:20:38;102286.31;;;9.33;39.24
78773;BME280;68111;44.728;11.290;2023-12-04T08:23:08;102288.22;;;9.37;38.96
78773;BME280;68111;44.728;11.290;2023-12-04T08:25:35;102289.03;;;9.35;39.15
78773;BME280;68111;44.728;11.290;2023-12-04T08:28:04;102288.13;;;9.34;38.94
78773;BME280;68111;44.728;11.290;2023-12-04T08:30:31;102277.56;;;9.34;39.06
78773;BME280;68111;44.728;11.290;2023-12-04T08:32:58;102275.88;;;9.36;38.99
78773;BME280;68111;44.728;11.290;2023-12-04T08:35:25;102271.59;;;9.40;39.13
78773;BME280;68111;44.728;11.290;2023-12-04T08:37:52;102278.59;;;9.39;38.90
78773;BME280;68111;44.728;11.290;2023-12-04T08:40:19;102284.03;;;9.44;38.94
78773;BME280;68111;44.728;11.290;2023-12-04T08:42:46;102288.59;;;9.49;38.95
78773;BME280;68111;44.728;11.290;2023-12-04T08:45:13;102283.31;;;9.49;38.94
78773;BME280;68111;44.728;11.290;2023-12-04T08:47:42;102287.72;;;9.49;38.93
78773;BME280;68111;44.728;11.290;2023-12-04T08:50:08;102293.13;;;9.53;39.42
78773;BME280;68111;44.728;11.290;2023-12-04T08:52:36;102289.13;;;9.66;39.05
78773;BME280;68111;44.728;11.290;2023-12-04T08:55:03;102289.53;;;9.80;39.08
78773;BME280;68111;44.728;11.290;2023-12-04T08:57:31;102293.38;;;9.91;38.86
78773;BME280;68111;44.728;11.290;2023-12-04T08:59:58;102293.56;;;9.97;38.81
78773;BME280;68111;44.728;11.290;2023-12-04T09:02:25;102280.44;;;10.00;38.43
78773;BME280;68111;44.728;11.290;2023-12-04T09:04:52;102273.41;;;10.01;38.57
78773;BME280;68111;44.728;11.290;2023-12-04T09:07:19;102273.41;;;10.01;38.48
78773;BME280;68111;44.728;11.290;2023-12-04T09:09:49;102278.03;;;10.08;38.62
78773;BME280;68111;44.728;11.290;2023-12-04T09:12:16;102277.38;;;10.16;38.15
78773;BME280;68111;44.728;11.290;2023-12-04T09:14:44;102275.03;;;10.25;38.27
78773;BME280;68111;44.728;11.290;2023-12-04T09:17:13;102264.53;;;10.29;37.96
78773;BME280;68111;44.728;11.290;2023-12-04T09:19:39;102262.59;;;10.21;37.93
78773;BME280;68111;44.728;11.290;2023-12-04T09:22:06;102255.19;;;10.10;37.95
78773;BME280;68111;44.728;11.290;2023-12-04T09:24:45;102258.69;;;10.09;38.02
78773;BME280;68111;44.728;11.290;2023-12-04T09:27:12;102251.72;;;10.12;37.97
78773;BME280;68111;44.728;11.290;2023-12-04T09:29:40;102239.53;;;10.17;37.98
78773;BME280;68111;44.728;11.290;2023-12-04T09:32:07;102246.63;;;10.18;38.08
78773;BME280;68111;44.728;11.290;2023-12-04T09:34:34;102245.72;;;10.18;37.99
78773;BME280;68111;44.728;11.290;2023-12-04T09:37:01;102245.63;;;10.15;37.89
78773;BME280;68111;44.728;11.290;2023-12-04T09:39:36;102235.97;;;10.15;38.05
78773;BME280;68111;44.728;11.290;2023-12-04T09:42:03;102224.53;;;10.16;38.04
78773;BME280;68111;44.728;11.290;2023-12-04T09:44:31;102209.63;;;10.18;38.08
78773;BME280;68111;44.728;11.290;2023-12-04T09:46:59;102219.16;;;10.13;37.97
78773;BME280;68111;44.728;11.290;2023-12-04T09:49:28;102218.06;;;10.05;37.81
78773;BME280;68111;44.728;11.290;2023-12-04T09:51:57;102200.59;;;10.10;37.81
78773;BME280;68111;44.728;11.290;2023-12-04T09:54:25;102177.06;;;10.19;37.69
78773;BME280;68111;44.728;11.290;2023-12-04T09:56:53;102182.34;;;10.19;37.72
78773;BME280;68111;44.728;11.290;2023-12-04T09:59:23;102194.84;;;10.25;37.88
78773;BME280;68111;44.728;11.290;2023-12-04T10:01:52;102190.13;;;10.45;37.73
78773;BME280;68111;44.728;11.290;2023-12-04T10:04:19;102188.00;;;10.66;37.44
78773;BME280;68111;44.728;11.290;2023-12-04T10:06:51;102177.91;;;10.86;37.47
78773;BME280;68111;44.728;11.290;2023-12-04T10:09:19;102185.31;;;11.01;37.02
78773;BME280;68111;44.728;11.290;2023-12-04T10:11:46;102184.69;;;11.12;36.77
78773;BME280;68111;44.728;11.290;2023-12-04T10:14:19;102173.50;;;11.24;36.65
78773;BME280;68111;44.728;11.290;2023-12-04T10:16:49;102157.88;;;11.36;36.58
78773;BME280;68111;44.728;11.290;2023-12-04T10:19:22;102136.50;;;11.27;36.29
78773;BME280;68111;44.728;11.290;2023-12-04T10:22:08;102130.69;;;11.03;36.55
78773;BME280;68111;44.728;11.290;2023-12-04T10:24:57;102119.53;;;10.78;36.81
78773;BME280;68111;44.728;11.290;2023-12-04T10:27:26;102089.94;;;10.57;36.77
78773;BME280;68111;44.728;11.290;2023-12-04T10:29:53;102071.78;;;10.36;37.25
78773;BME280;68111;44.728;11.290;2023-12-04T10:32:21;102067.06;;;10.23;37.43
78773;BME280;68111;44.728;11.290;2023-12-04T10:34:50;102065.88;;;10.12;37.81
78773;BME280;68111;44.728;11.290;2023-12-04T10:37:17;102072.63;;;10.01;37.95
78773;BME280;68111;44.728;11.290;2023-12-04T10:39:47;102093.53;;;9.91;38.22
78773;BME280;68111;44.728;11.290;2023-12-04T10:42:28;102112.66;;;9.83;38.69
78773;BME280;68111;44.728;11.290;2023-12-04T10:44:57;102119.88;;;9.88;38.51
78773;BME280;68111;44.728;11.290;2023-12-04T10:47:26;102121.69;;;9.91;38.81
78773;BME280;68111;44.728;11.290;2023-12-04T10:49:53;102117.34;;;9.93;38.77
78773;BME280;68111;44.728;11.290;2023-12-04T10:52:22;102130.59;;;9.94;39.00
78773;BME280;68111;44.728;11.290;2023-12-04T10:54:49;102131.72;;;10.04;39.08
78773;BME280;68111;44.728;11.290;2023-12-04T10:57:24;102131.22;;;10.19;38.76
78773;BME280;68111;44.728;11.290;2023-12-04T10:59:57;102128.19;;;10.37;38.99
78773;BME280;68111;44.728;11.290;2023-12-04T11:02:26;102112.66;;;10.49;38.75
78773;BME280;68111;44.728;11.290;2023-12-04T11:05:07;102093.44;;;10.56;38.65
78773;BME280;68111;44.728;11.290;2023-12-04T11:07:42;102078.47;;;10.56;38.37
78773;BME280;68111;44.728;11.290;2023-12-04T11:10:31;102080.06;;;10.48;38.30
78773;BME280;68111;44.728;11.290;2023-12-04T11:13:08;102076.38;;;10.42;38.59
78773;BME280;68111;44.728;11.290;2023-12-04T11:15:40;102083.50;;;10.46;38.79
78773;BME280;68111;44.728;11.290;2023-12-04T11:18:09;102073.09;;;10.52;38.59
78773;BME280;68111;44.728;11.290;2023-12-04T11:20:48;102070.44;;;10.52;38.56
78773;BME280;68111;44.728;11.290;2023-12-04T11:23:17;102069.44;;;10.47;38.57
78773;BME280;68111;44.728;11.290;2023-12-04T11:25:45;102071.88;;;10.39;38.79
78773;BME280;68111;44.728;11.290;2023-12-04T11:28:16;102077.16;;;10.39;38.77
78773;BME280;68111;44.728;11.290;2023-12-04T11:30:44;102071.16;;;10.45;38.75
78773;BME280;68111;44.728;11.290;2023-12-04T11:33:12;102063.28;;;10.48;38.93
78773;BME280;68111;44.728;11.290;2023-12-04T11:35:39;102064.22;;;10.50;39.14
78773;BME280;68111;44.728;11.290;2023-12-04T11:38:06;102053.72;;;10.53;38.83
78773;BME280;68111;44.728;11.290;2023-12-04T11:40:36;102053.03;;;10.62;38.85
78773;BME280;68111;44.728;11.290;2023-12-04T11:43:25;102043.50;;;10.68;38.73
78773;BME280;68111;44.728;11.290;2023-12-04T11:46:14;102041.84;;;10.73;38.79
78773;BME280;68111;44.728;11.290;2023-12-04T11:48:40;102038.31;;;10.73;38.80
78773;BME280;68111;44.728;11.290;2023-12-04T11:51:07;102029.41;;;10.69;38.65
78773;BME280;68111;44.728;11.290;2023-12-04T11:53:38;102029.41;;;10.69;38.94
78773;BME280;68111;44.728;11.290;2023-12-04T11:56:10;102025.13;;;10.74;38.82
78773;BME280;68111;44.728;11.290;2023-12-04T11:58:42;102027.00;;;10.80;38.83
78773;BME280;68111;44.728;11.290;2023-12-04T12:01:10;102031.47;;;10.82;38.88
78773;BME280;68111;44.728;11.290;2023-12-04T12:03:37;102019.09;;;10.81;38.96
78773;BME280;68111;44.728;11.290;2023-12-04T12:06:04;102019.09;;;10.81;39.21
78773;BME280;68111;44.728;11.290;2023-12-04T12:08:32;102013.75;;;10.78;38.79
78773;BME280;68111;44.728;11.290;2023-12-04T12:10:59;102012.03;;;10.80;38.88
78773;BME280;68111;44.728;11.290;2023-12-04T12:13:26;102007.56;;;10.78;39.02
78773;BME280;68111;44.728;11.290;2023-12-04T12:15:53;102003.03;;;10.72;39.07
78773;BME280;68111;44.728;11.290;2023-12-04T12:18:21;102002.94;;;10.68;39.17
78773;BME280;68111;44.728;11.290;2023-12-04T12:20:50;101997.63;;;10.68;39.21
78773;BME280;68111;44.728;11.290;2023-12-04T12:23:16;101993.31;;;10.71;39.31
78773;BME280;68111;44.728;11.290;2023-12-04T12:25:43;101987.91;;;10.67;39.13
78773;BME280;68111;44.728;11.290;2023-12-04T12:28:10;101990.47;;;10.62;39.26
78773;BME280;68111;44.728;11.290;2023-12-04T12:30:37;101995.81;;;10.65;39.44
78773;BME280;68111;44.728;11.290;2023-12-04T12:33:04;101994.19;;;10.72;39.46
78773;BME280;68111;44.728;11.290;2023-12-04T12:35:31;101983.78;;;10.79;39.29
78773;BME280;68111;44.728;11.290;2023-12-04T12:37:58;101987.44;;;10.86;39.21
78773;BME280;68111;44.728;11.290;2023-12-04T12:40:27;101982.31;;;10.94;39.20
78773;BME280;68111;44.728;11.290;2023-12-04T12:43:03;101974.47;;;10.98;39.07
78773;BME280;68111;44.728;11.290;2023-12-04T12:45:44;101969.25;;;11.01;39.01